sensor_id;sensor_type;location;lat;lon;timestamp;temperature;humidity
39655;DHT22;25336;59.944;11.010;2023-02-26T00:02:08;-1.50;55.80
39655;DHT22;25336;59.944;11.010;2023-02-26T00:04:35;-1.50;55.80
39655;DHT22;25336;59.944;11.010;2023-02-26T00:07:01;-1.50;55.90
39655;DHT22;25336;59.944;11.010;2023-02-26T00:09:29;-1.50;56.00
39655;DHT22;25336;59.944;11.010;2023-02-26T00:11:55;-1.50;56.10
39655;DHT22;25336;59.944;11.010;2023-02-26T00:14:21;-1.50;56.20
39655;DHT22;25336;59.944;11.010;2023-02-26T00:16:52;-1.60;56.30
39655;DHT22;25336;59.944;11.010;2023-02-26T00:19:20;-1.60;56.50
39655;DHT22;25336;59.944;11.010;2023-02-26T00:21:46;-1.60;56.50
39655;DHT22;25336;59.944;11.010;2023-02-26T00:24:11;-1.60;56.50
39655;DHT22;25336;59.944;11.010;2023-02-26T00:26:37;-1.60;56.60
39655;DHT22;25336;59.944;11.010;2023-02-26T00:29:03;-1.60;56.50
39655;DHT22;25336;59.944;11.010;2023-02-26T00:31:29;-1.60;56.90
39655;DHT22;25336;59.944;11.010;2023-02-26T00:33:55;-1.70;56.30
39655;DHT22;25336;59.944;11.010;2023-02-26T00:36:25;-0.90;56.70
39655;DHT22;25336;59.944;11.010;2023-02-26T00:41:24;-1.70;56.80
39655;DHT22;25336;59.944;11.010;2023-02-26T00:43:50;-1.70;56.80
39655;DHT22;25336;59.944;11.010;2023-02-26T00:46:21;-1.70;57.10
39655;DHT22;25336;59.944;11.010;2023-02-26T00:51:48;-1.70;57.40
39655;DHT22;25336;59.944;11.010;2023-02-26T00:54:21;-1.60;57.40
39655;DHT22;25336;59.944;11.010;2023-02-26T00:56:48;-1.70;57.30
39655;DHT22;25336;59.944;11.010;2023-02-26T00:59:15;-2.40;56.80
39655;DHT22;25336;59.944;11.010;2023-02-26T01:01:40;-1.60;57.30
39655;DHT22;25336;59.944;11.010;2023-02-26T01:04:06;-1.60;57.30
39655;DHT22;25336;59.944;11.010;2023-02-26T01:06:34;-1.50;57.30
39655;DHT22;25336;59.944;11.010;2023-02-26T01:09:28;-1.50;57.20
39655;DHT22;25336;59.944;11.010;2023-02-26T01:11:57;-1.50;57.50
39655;DHT22;25336;59.944;11.010;2023-02-26T01:14:24;-1.50;57.30
39655;DHT22;25336;59.944;11.010;2023-02-26T01:19:47;-1.40;57.20
39655;DHT22;25336;59.944;11.010;2023-02-26T01:22:28;-1.40;57.20
39655;DHT22;25336;59.944;11.010;2023-02-26T01:25:25;-1.30;57.80
39655;DHT22;25336;59.944;11.010;2023-02-26T01:27:52;-1.30;57.20
39655;DHT22;25336;59.944;11.010;2023-02-26T01:30:18;-1.20;57.10
39655;DHT22;25336;59.944;11.010;2023-02-26T01:32:59;0.20;57.70
39655;DHT22;25336;59.944;11.010;2023-02-26T01:46:21;-0.50;56.80
39655;DHT22;25336;59.944;11.010;2023-02-26T01:48:52;-0.40;56.70
39655;DHT22;25336;59.944;11.010;2023-02-26T01:51:36;-0.30;56.50
39655;DHT22;25336;59.944;11.010;2023-02-26T01:54:04;-0.20;56.30
39655;DHT22;25336;59.944;11.010;2023-02-26T01:56:29;-0.20;56.40
39655;DHT22;25336;59.944;11.010;2023-02-26T01:58:55;-0.10;56.00
39655;DHT22;25336;59.944;11.010;2023-02-26T02:01:20;0.00;55.90
39655;DHT22;25336;59.944;11.010;2023-02-26T02:03:46;0.10;55.90
39655;DHT22;25336;59.944;11.010;2023-02-26T02:06:21;0.10;55.70
39655;DHT22;25336;59.944;11.010;2023-02-26T02:08:48;0.20;55.60
39655;DHT22;25336;59.944;11.010;2023-02-26T02:11:14;0.20;55.50
39655;DHT22;25336;59.944;11.010;2023-02-26T02:13:56;0.30;55.30
39655;DHT22;25336;59.944;11.010;2023-02-26T02:16:47;0.30;55.20
39655;DHT22;25336;59.944;11.010;2023-02-26T02:22:25;0.40;54.90
39655;DHT22;25336;59.944;11.010;2023-02-26T02:33:17;0.50;54.60
39655;DHT22;25336;59.944;11.010;2023-02-26T02:35:57;0.50;54.50
39655;DHT22;25336;59.944;11.010;2023-02-26T02:38:37;0.60;54.50
39655;DHT22;25336;59.944;11.010;2023-02-26T02:41:10;0.60;54.50
39655;DHT22;25336;59.944;11.010;2023-02-26T02:43:38;0.60;54.50
39655;DHT22;25336;59.944;11.010;2023-02-26T02:46:08;0.60;54.40
39655;DHT22;25336;59.944;11.010;2023-02-26T02:48:42;0.70;54.40
39655;DHT22;25336;59.944;11.010;2023-02-26T02:51:16;0.70;54.30
39655;DHT22;25336;59.944;11.010;2023-02-26T02:56:34;0.70;54.20
39655;DHT22;25336;59.944;11.010;2023-02-26T02:59:18;0.70;54.10
39655;DHT22;25336;59.944;11.010;2023-02-26T03:01:47;0.70;53.90
39655;DHT22;25336;59.944;11.010;2023-02-26T03:04:15;0.70;53.90
39655;DHT22;25336;59.944;11.010;2023-02-26T03:06:41;0.70;53.80
39655;DHT22;25336;59.944;11.010;2023-02-26T03:09:09;1.40;54.10
39655;DHT22;25336;59.944;11.010;2023-02-26T03:11:35;0.70;53.60
39655;DHT22;25336;59.944;11.010;2023-02-26T03:14:02;0.70;53.60
39655;DHT22;25336;59.944;11.010;2023-02-26T03:21:55;0.70;53.50
39655;DHT22;25336;59.944;11.010;2023-02-26T03:24:36;0.70;53.50
39655;DHT22;25336;59.944;11.010;2023-02-26T03:29:58;0.60;53.30
39655;DHT22;25336;59.944;11.010;2023-02-26T03:32:34;0.60;53.30
39655;DHT22;25336;59.944;11.010;2023-02-26T03:35:14;0.60;53.30
39655;DHT22;25336;59.944;11.010;2023-02-26T03:37:48;0.50;53.30
39655;DHT22;25336;59.944;11.010;2023-02-26T03:40:19;0.50;53.40
39655;DHT22;25336;59.944;11.010;2023-02-26T03:42:51;0.50;53.40
39655;DHT22;25336;59.944;11.010;2023-02-26T03:45:25;0.40;53.40
39655;DHT22;25336;59.944;11.010;2023-02-26T03:47:52;0.40;53.30
39655;DHT22;25336;59.944;11.010;2023-02-26T03:50:32;0.40;53.40
39655;DHT22;25336;59.944;11.010;2023-02-26T03:53:01;0.30;53.30
39655;DHT22;25336;59.944;11.010;2023-02-26T03:58:01;0.30;53.50
39655;DHT22;25336;59.944;11.010;2023-02-26T04:00:28;0.30;53.50
39655;DHT22;25336;59.944;11.010;2023-02-26T04:05:34;0.30;53.50
39655;DHT22;25336;59.944;11.010;2023-02-26T04:08:01;0.30;53.50
39655;DHT22;25336;59.944;11.010;2023-02-26T04:10:37;0.30;53.50
39655;DHT22;25336;59.944;11.010;2023-02-26T04:13:04;0.80;53.70
39655;DHT22;25336;59.944;11.010;2023-02-26T04:15:30;0.30;53.40
39655;DHT22;25336;59.944;11.010;2023-02-26T04:17:56;0.20;53.30
39655;DHT22;25336;59.944;11.010;2023-02-26T04:20:21;0.20;53.30
39655;DHT22;25336;59.944;11.010;2023-02-26T04:22:47;0.10;53.20
39655;DHT22;25336;59.944;11.010;2023-02-26T04:25:12;0.00;53.20
39655;DHT22;25336;59.944;11.010;2023-02-26T04:27:38;0.00;53.20
39655;DHT22;25336;59.944;11.010;2023-02-26T04:30:04;0.00;53.20
39655;DHT22;25336;59.944;11.010;2023-02-26T04:32:30;-0.10;53.30
39655;DHT22;25336;59.944;11.010;2023-02-26T04:34:55;-0.20;53.40
39655;DHT22;25336;59.944;11.010;2023-02-26T04:37:21;-0.30;53.50
39655;DHT22;25336;59.944;11.010;2023-02-26T04:39:47;-0.30;53.60
39655;DHT22;25336;59.944;11.010;2023-02-26T04:42:12;-0.40;53.70
39655;DHT22;25336;59.944;11.010;2023-02-26T04:44:38;-0.40;53.80
39655;DHT22;25336;59.944;11.010;2023-02-26T04:47:03;-0.40;53.90
39655;DHT22;25336;59.944;11.010;2023-02-26T04:49:29;-0.40;54.00
39655;DHT22;25336;59.944;11.010;2023-02-26T04:51:54;-0.40;54.10
39655;DHT22;25336;59.944;11.010;2023-02-26T04:54:20;-0.50;54.10
39655;DHT22;25336;59.944;11.010;2023-02-26T04:56:46;-1.10;53.80
39655;DHT22;25336;59.944;11.010;2023-02-26T04:59:11;-0.60;54.10
39655;DHT22;25336;59.944;11.010;2023-02-26T05:01:37;-0.60;54.20
39655;DHT22;25336;59.944;11.010;2023-02-26T05:04:02;-0.60;54.20
39655;DHT22;25336;59.944;11.010;2023-02-26T05:06:28;-0.70;54.30
39655;DHT22;25336;59.944;11.010;2023-02-26T05:08:54;-0.70;54.30
39655;DHT22;25336;59.944;11.010;2023-02-26T05:11:19;-0.70;54.30
39655;DHT22;25336;59.944;11.010;2023-02-26T05:13:45;-0.80;54.30
39655;DHT22;25336;59.944;11.010;2023-02-26T05:16:10;-0.90;54.30
39655;DHT22;25336;59.944;11.010;2023-02-26T05:18:36;-0.90;54.30
39655;DHT22;25336;59.944;11.010;2023-02-26T05:21:02;-1.00;54.40
39655;DHT22;25336;59.944;11.010;2023-02-26T05:23:28;-1.00;54.50
39655;DHT22;25336;59.944;11.010;2023-02-26T05:25:55;-1.10;54.60
39655;DHT22;25336;59.944;11.010;2023-02-26T05:28:21;-1.10;54.80
39655;DHT22;25336;59.944;11.010;2023-02-26T05:30:47;-1.10;55.00
39655;DHT22;25336;59.944;11.010;2023-02-26T05:33:12;-1.10;55.30
39655;DHT22;25336;59.944;11.010;2023-02-26T05:35:38;-1.00;55.50
39655;DHT22;25336;59.944;11.010;2023-02-26T05:38:04;-1.00;55.60
39655;DHT22;25336;59.944;11.010;2023-02-26T05:40:29;-0.90;55.60
39655;DHT22;25336;59.944;11.010;2023-02-26T05:42:55;-0.80;55.70
39655;DHT22;25336;59.944;11.010;2023-02-26T05:45:20;-0.70;55.60
39655;DHT22;25336;59.944;11.010;2023-02-26T05:47:46;-0.60;55.50
39655;DHT22;25336;59.944;11.010;2023-02-26T05:50:12;-0.60;55.50
39655;DHT22;25336;59.944;11.010;2023-02-26T05:52:37;-0.60;55.50
39655;DHT22;25336;59.944;11.010;2023-02-26T05:55:04;-0.50;55.60
39655;DHT22;25336;59.944;11.010;2023-02-26T05:57:29;-0.10;55.80
39655;DHT22;25336;59.944;11.010;2023-02-26T05:59:55;-0.40;55.70
39655;DHT22;25336;59.944;11.010;2023-02-26T06:02:21;-0.30;55.80
39655;DHT22;25336;59.944;11.010;2023-02-26T06:04:47;-0.20;55.40
39655;DHT22;25336;59.944;11.010;2023-02-26T06:07:12;-0.20;55.80
39655;DHT22;25336;59.944;11.010;2023-02-26T06:09:38;-0.10;55.80
39655;DHT22;25336;59.944;11.010;2023-02-26T06:12:04;-0.10;55.40
39655;DHT22;25336;59.944;11.010;2023-02-26T06:14:31;-0.10;55.10
39655;DHT22;25336;59.944;11.010;2023-02-26T06:16:57;-0.10;55.00
39655;DHT22;25336;59.944;11.010;2023-02-26T06:19:22;-0.20;54.90
39655;DHT22;25336;59.944;11.010;2023-02-26T06:21:48;-0.20;54.80
39655;DHT22;25336;59.944;11.010;2023-02-26T06:24:14;-0.30;54.80
39655;DHT22;25336;59.944;11.010;2023-02-26T06:26:39;-0.30;55.00
39655;DHT22;25336;59.944;11.010;2023-02-26T06:29:05;-0.40;55.20
39655;DHT22;25336;59.944;11.010;2023-02-26T06:31:31;-0.40;55.50
39655;DHT22;25336;59.944;11.010;2023-02-26T06:33:56;-0.40;55.90
39655;DHT22;25336;59.944;11.010;2023-02-26T06:36:22;-0.50;56.00
39655;DHT22;25336;59.944;11.010;2023-02-26T06:38:47;-0.50;56.20
39655;DHT22;25336;59.944;11.010;2023-02-26T06:41:13;-0.50;56.20
39655;DHT22;25336;59.944;11.010;2023-02-26T06:43:38;-0.50;56.20
39655;DHT22;25336;59.944;11.010;2023-02-26T06:46:04;-0.50;56.20
39655;DHT22;25336;59.944;11.010;2023-02-26T06:48:30;-0.50;56.50
39655;DHT22;25336;59.944;11.010;2023-02-26T06:50:56;-0.50;56.70
39655;DHT22;25336;59.944;11.010;2023-02-26T06:53:21;-0.50;57.00
39655;DHT22;25336;59.944;11.010;2023-02-26T06:55:50;-0.50;57.10
39655;DHT22;25336;59.944;11.010;2023-02-26T06:58:16;-0.40;57.20
39655;DHT22;25336;59.944;11.010;2023-02-26T07:00:41;-0.40;57.40
39655;DHT22;25336;59.944;11.010;2023-02-26T07:03:15;-0.40;57.40
39655;DHT22;25336;59.944;11.010;2023-02-26T07:05:41;-0.30;57.70
39655;DHT22;25336;59.944;11.010;2023-02-26T07:08:07;-0.30;57.60
39655;DHT22;25336;59.944;11.010;2023-02-26T07:10:34;-0.20;57.60
39655;DHT22;25336;59.944;11.010;2023-02-26T07:13:00;-0.20;57.70
39655;DHT22;25336;59.944;11.010;2023-02-26T07:15:25;-0.10;57.80
39655;DHT22;25336;59.944;11.010;2023-02-26T07:17:52;1.10;58.50
39655;DHT22;25336;59.944;11.010;2023-02-26T07:20:18;0.00;58.00
39655;DHT22;25336;59.944;11.010;2023-02-26T07:22:43;0.00;57.90
39655;DHT22;25336;59.944;11.010;2023-02-26T07:25:11;0.20;58.10
39655;DHT22;25336;59.944;11.010;2023-02-26T07:27:37;0.20;58.00
39655;DHT22;25336;59.944;11.010;2023-02-26T07:30:04;0.40;58.00
39655;DHT22;25336;59.944;11.010;2023-02-26T07:32:29;0.50;58.00
39655;DHT22;25336;59.944;11.010;2023-02-26T07:34:55;0.60;58.00
39655;DHT22;25336;59.944;11.010;2023-02-26T07:37:21;0.70;58.00
39655;DHT22;25336;59.944;11.010;2023-02-26T07:39:46;0.40;57.80
39655;DHT22;25336;59.944;11.010;2023-02-26T07:42:12;1.00;58.00
39655;DHT22;25336;59.944;11.010;2023-02-26T07:44:37;1.50;58.10
39655;DHT22;25336;59.944;11.010;2023-02-26T07:47:03;1.10;57.90
39655;DHT22;25336;59.944;11.010;2023-02-26T07:49:29;1.10;57.90
39655;DHT22;25336;59.944;11.010;2023-02-26T07:51:57;1.20;58.00
39655;DHT22;25336;59.944;11.010;2023-02-26T07:54:22;2.00;58.30
39655;DHT22;25336;59.944;11.010;2023-02-26T07:56:51;1.30;57.80
39655;DHT22;25336;59.944;11.010;2023-02-26T07:59:17;1.40;57.70
39655;DHT22;25336;59.944;11.010;2023-02-26T08:01:45;2.60;58.20
39655;DHT22;25336;59.944;11.010;2023-02-26T08:04:11;1.50;57.60
39655;DHT22;25336;59.944;11.010;2023-02-26T08:06:36;2.20;57.90
39655;DHT22;25336;59.944;11.010;2023-02-26T08:09:03;1.50;57.50
39655;DHT22;25336;59.944;11.010;2023-02-26T08:11:32;1.60;57.60
39655;DHT22;25336;59.944;11.010;2023-02-26T08:14:01;1.60;57.40
39655;DHT22;25336;59.944;11.010;2023-02-26T08:16:27;1.60;57.50
39655;DHT22;25336;59.944;11.010;2023-02-26T08:18:52;2.40;57.90
39655;DHT22;25336;59.944;11.010;2023-02-26T08:21:18;1.70;58.20
39655;DHT22;25336;59.944;11.010;2023-02-26T08:23:44;1.80;57.70
39655;DHT22;25336;59.944;11.010;2023-02-26T08:26:10;1.80;57.60
39655;DHT22;25336;59.944;11.010;2023-02-26T08:28:38;1.90;57.60
39655;DHT22;25336;59.944;11.010;2023-02-26T08:31:04;1.90;57.60
39655;DHT22;25336;59.944;11.010;2023-02-26T08:33:30;2.00;57.60
39655;DHT22;25336;59.944;11.010;2023-02-26T08:35:56;2.00;57.70
39655;DHT22;25336;59.944;11.010;2023-02-26T08:38:24;2.10;57.70
39655;DHT22;25336;59.944;11.010;2023-02-26T08:40:49;2.20;57.70
39655;DHT22;25336;59.944;11.010;2023-02-26T08:43:17;2.30;58.40
39655;DHT22;25336;59.944;11.010;2023-02-26T08:45:43;2.40;57.70
39655;DHT22;25336;59.944;11.010;2023-02-26T08:48:09;2.50;57.70
39655;DHT22;25336;59.944;11.010;2023-02-26T08:50:34;2.60;57.80
39655;DHT22;25336;59.944;11.010;2023-02-26T08:53:00;2.70;57.80
39655;DHT22;25336;59.944;11.010;2023-02-26T08:55:25;2.80;57.80
39655;DHT22;25336;59.944;11.010;2023-02-26T08:57:51;2.80;57.80
39655;DHT22;25336;59.944;11.010;2023-02-26T09:00:17;3.00;57.80
39655;DHT22;25336;59.944;11.010;2023-02-26T09:02:44;3.10;57.70
39655;DHT22;25336;59.944;11.010;2023-02-26T09:05:10;3.10;57.50
39655;DHT22;25336;59.944;11.010;2023-02-26T09:07:37;3.20;57.60
39655;DHT22;25336;59.944;11.010;2023-02-26T09:10:04;3.30;57.50
39655;DHT22;25336;59.944;11.010;2023-02-26T09:12:31;3.40;57.50
39655;DHT22;25336;59.944;11.010;2023-02-26T09:14:57;3.40;57.50
39655;DHT22;25336;59.944;11.010;2023-02-26T09:17:24;4.40;58.00
39655;DHT22;25336;59.944;11.010;2023-02-26T09:19:49;3.60;57.50
39655;DHT22;25336;59.944;11.010;2023-02-26T09:22:15;3.70;57.30
39655;DHT22;25336;59.944;11.010;2023-02-26T09:24:40;3.80;57.00
39655;DHT22;25336;59.944;11.010;2023-02-26T09:27:06;3.90;56.60
39655;DHT22;25336;59.944;11.010;2023-02-26T09:29:32;4.10;56.50
39655;DHT22;25336;59.944;11.010;2023-02-26T09:31:57;4.10;56.30
39655;DHT22;25336;59.944;11.010;2023-02-26T09:34:23;4.30;56.30
39655;DHT22;25336;59.944;11.010;2023-02-26T09:36:48;4.40;56.30
39655;DHT22;25336;59.944;11.010;2023-02-26T09:39:14;4.60;56.10
39655;DHT22;25336;59.944;11.010;2023-02-26T09:41:43;4.70;56.00
39655;DHT22;25336;59.944;11.010;2023-02-26T09:44:23;4.80;55.60
39655;DHT22;25336;59.944;11.010;2023-02-26T09:47:12;5.00;55.20
39655;DHT22;25336;59.944;11.010;2023-02-26T09:54:45;5.40;54.60
39655;DHT22;25336;59.944;11.010;2023-02-26T10:03:09;5.70;54.20
39655;DHT22;25336;59.944;11.010;2023-02-26T10:08:35;6.00;53.60
39655;DHT22;25336;59.944;11.010;2023-02-26T10:11:10;6.10;53.70
39655;DHT22;25336;59.944;11.010;2023-02-26T10:13:50;6.20;53.60
39655;DHT22;25336;59.944;11.010;2023-02-26T10:16:21;6.30;53.50
39655;DHT22;25336;59.944;11.010;2023-02-26T10:18:54;6.40;53.20
39655;DHT22;25336;59.944;11.010;2023-02-26T10:21:31;7.50;53.30
39655;DHT22;25336;59.944;11.010;2023-02-26T10:24:01;6.60;52.80
39655;DHT22;25336;59.944;11.010;2023-02-26T10:26:52;6.60;52.70
39655;DHT22;25336;59.944;11.010;2023-02-26T10:37:07;7.10;52.70
39655;DHT22;25336;59.944;11.010;2023-02-26T10:40:01;7.20;52.30
39655;DHT22;25336;59.944;11.010;2023-02-26T10:42:47;7.30;52.10
39655;DHT22;25336;59.944;11.010;2023-02-26T10:50:47;7.50;51.90
39655;DHT22;25336;59.944;11.010;2023-02-26T10:53:13;7.60;51.60
39655;DHT22;25336;59.944;11.010;2023-02-26T10:55:47;7.60;51.60
39655;DHT22;25336;59.944;11.010;2023-02-26T10:58:22;7.70;51.30
39655;DHT22;25336;59.944;11.010;2023-02-26T11:00:49;7.80;51.30
39655;DHT22;25336;59.944;11.010;2023-02-26T11:03:39;7.80;50.90
39655;DHT22;25336;59.944;11.010;2023-02-26T11:06:05;7.80;50.80
39655;DHT22;25336;59.944;11.010;2023-02-26T11:08:40;7.90;50.70
39655;DHT22;25336;59.944;11.010;2023-02-26T11:11:07;7.90;50.50
39655;DHT22;25336;59.944;11.010;2023-02-26T11:13:36;7.90;50.50
39655;DHT22;25336;59.944;11.010;2023-02-26T11:16:05;7.90;49.30
39655;DHT22;25336;59.944;11.010;2023-02-26T11:21:16;7.90;49.20
39655;DHT22;25336;59.944;11.010;2023-02-26T11:23:43;7.80;49.20
39655;DHT22;25336;59.944;11.010;2023-02-26T11:26:16;7.80;49.50
39655;DHT22;25336;59.944;11.010;2023-02-26T11:28:48;7.70;49.10
39655;DHT22;25336;59.944;11.010;2023-02-26T11:31:20;7.70;49.20
39655;DHT22;25336;59.944;11.010;2023-02-26T11:33:50;7.70;49.40
39655;DHT22;25336;59.944;11.010;2023-02-26T11:36:19;7.60;49.50
39655;DHT22;25336;59.944;11.010;2023-02-26T11:39:00;8.50;50.00
39655;DHT22;25336;59.944;11.010;2023-02-26T11:41:27;7.70;49.60
39655;DHT22;25336;59.944;11.010;2023-02-26T11:44:06;7.70;49.60
39655;DHT22;25336;59.944;11.010;2023-02-26T11:46:37;7.70;49.20
39655;DHT22;25336;59.944;11.010;2023-02-26T11:49:04;7.80;49.40
39655;DHT22;25336;59.944;11.010;2023-02-26T11:51:30;7.90;49.50
39655;DHT22;25336;59.944;11.010;2023-02-26T11:53:58;7.90;49.30
39655;DHT22;25336;59.944;11.010;2023-02-26T11:56:38;7.90;48.80
39655;DHT22;25336;59.944;11.010;2023-02-26T11:59:24;7.90;48.50
39655;DHT22;25336;59.944;11.010;2023-02-26T12:01:50;7.90;48.90
39655;DHT22;25336;59.944;11.010;2023-02-26T12:04:21;7.90;49.20
39655;DHT22;25336;59.944;11.010;2023-02-26T12:06:54;7.90;48.90
39655;DHT22;25336;59.944;11.010;2023-02-26T12:09:20;7.90;49.20
39655;DHT22;25336;59.944;11.010;2023-02-26T12:17:37;8.00;48.50
39655;DHT22;25336;59.944;11.010;2023-02-26T12:23:41;8.80;48.90
39655;DHT22;25336;59.944;11.010;2023-02-26T12:29:18;8.10;49.00
39655;DHT22;25336;59.944;11.010;2023-02-26T12:34:59;8.30;48.50
39655;DHT22;25336;59.944;11.010;2023-02-26T13:01:49;8.70;47.50
39655;DHT22;25336;59.944;11.010;2023-02-26T13:21:08;9.00;47.50
39655;DHT22;25336;59.944;11.010;2023-02-26T13:26:31;8.90;47.10
39655;DHT22;25336;59.944;11.010;2023-02-26T13:34:14;8.90;47.00
39655;DHT22;25336;59.944;11.010;2023-02-26T13:36:41;8.90;47.70
39655;DHT22;25336;59.944;11.010;2023-02-26T13:39:27;9.00;47.30
39655;DHT22;25336;59.944;11.010;2023-02-26T13:42:11;9.00;47.00
39655;DHT22;25336;59.944;11.010;2023-02-26T13:50:14;8.90;46.90
39655;DHT22;25336;59.944;11.010;2023-02-26T13:53:03;9.00;47.00
39655;DHT22;25336;59.944;11.010;2023-02-26T13:55:45;10.10;47.60
39655;DHT22;25336;59.944;11.010;2023-02-26T14:01:07;9.00;47.20
39655;DHT22;25336;59.944;11.010;2023-02-26T14:04:06;9.00;47.10
39655;DHT22;25336;59.944;11.010;2023-02-26T14:06:41;9.00;46.80
39655;DHT22;25336;59.944;11.010;2023-02-26T14:11:59;10.00;47.00
39655;DHT22;25336;59.944;11.010;2023-02-26T14:22:47;9.00;46.60
39655;DHT22;25336;59.944;11.010;2023-02-26T14:25:31;9.00;47.20
39655;DHT22;25336;59.944;11.010;2023-02-26T14:30:52;9.10;47.00
39655;DHT22;25336;59.944;11.010;2023-02-26T14:33:29;9.10;47.40
39655;DHT22;25336;59.944;11.010;2023-02-26T14:35:56;9.10;47.30
39655;DHT22;25336;59.944;11.010;2023-02-26T14:38:30;10.20;47.70
39655;DHT22;25336;59.944;11.010;2023-02-26T14:41:02;9.20;47.10
39655;DHT22;25336;59.944;11.010;2023-02-26T14:43:42;9.20;47.00
39655;DHT22;25336;59.944;11.010;2023-02-26T14:46:10;9.20;46.90
39655;DHT22;25336;59.944;11.010;2023-02-26T14:48:37;9.20;47.00
39655;DHT22;25336;59.944;11.010;2023-02-26T14:51:14;9.20;46.90
39655;DHT22;25336;59.944;11.010;2023-02-26T15:02:14;9.20;46.70
39655;DHT22;25336;59.944;11.010;2023-02-26T15:05:03;9.20;46.60
39655;DHT22;25336;59.944;11.010;2023-02-26T15:19:08;8.90;46.90
39655;DHT22;25336;59.944;11.010;2023-02-26T15:21:51;8.90;47.10
39655;DHT22;25336;59.944;11.010;2023-02-26T15:24:22;8.90;47.40
39655;DHT22;25336;59.944;11.010;2023-02-26T15:26:52;8.80;47.50
39655;DHT22;25336;59.944;11.010;2023-02-26T15:29:23;8.80;47.70
39655;DHT22;25336;59.944;11.010;2023-02-26T15:31:56;8.80;47.70
39655;DHT22;25336;59.944;11.010;2023-02-26T15:34:22;8.80;47.60
39655;DHT22;25336;59.944;11.010;2023-02-26T15:36:50;8.80;47.70
39655;DHT22;25336;59.944;11.010;2023-02-26T15:39:17;8.80;47.70
39655;DHT22;25336;59.944;11.010;2023-02-26T15:41:47;8.70;47.60
39655;DHT22;25336;59.944;11.010;2023-02-26T15:44:18;8.70;47.70
39655;DHT22;25336;59.944;11.010;2023-02-26T15:46:46;8.70;47.70
39655;DHT22;25336;59.944;11.010;2023-02-26T15:51:40;8.60;47.80
39655;DHT22;25336;59.944;11.010;2023-02-26T15:54:15;8.60;47.80
39655;DHT22;25336;59.944;11.010;2023-02-26T15:56:43;8.60;47.90
39655;DHT22;25336;59.944;11.010;2023-02-26T15:59:12;8.50;47.90
39655;DHT22;25336;59.944;11.010;2023-02-26T16:01:42;8.50;47.90
39655;DHT22;25336;59.944;11.010;2023-02-26T16:04:13;8.50;48.00
39655;DHT22;25336;59.944;11.010;2023-02-26T16:06:47;8.40;48.00
39655;DHT22;25336;59.944;11.010;2023-02-26T16:09:28;8.30;48.00
39655;DHT22;25336;59.944;11.010;2023-02-26T16:11:57;8.30;48.00
39655;DHT22;25336;59.944;11.010;2023-02-26T16:14:35;8.20;48.10
39655;DHT22;25336;59.944;11.010;2023-02-26T16:17:03;8.20;48.20
39655;DHT22;25336;59.944;11.010;2023-02-26T16:19:43;8.10;48.20
39655;DHT22;25336;59.944;11.010;2023-02-26T16:22:48;8.10;48.20
39655;DHT22;25336;59.944;11.010;2023-02-26T16:25:35;8.00;48.10
39655;DHT22;25336;59.944;11.010;2023-02-26T16:28:09;7.90;48.00
39655;DHT22;25336;59.944;11.010;2023-02-26T16:30:37;7.80;48.10
39655;DHT22;25336;59.944;11.010;2023-02-26T16:33:11;8.20;48.50
39655;DHT22;25336;59.944;11.010;2023-02-26T16:35:41;7.70;48.30
39655;DHT22;25336;59.944;11.010;2023-02-26T16:38:23;7.60;48.40
39655;DHT22;25336;59.944;11.010;2023-02-26T16:41:00;7.50;48.40
39655;DHT22;25336;59.944;11.010;2023-02-26T16:46:32;7.30;48.50
39655;DHT22;25336;59.944;11.010;2023-02-26T16:51:31;7.10;48.70
39655;DHT22;25336;59.944;11.010;2023-02-26T16:54:01;7.00;48.70
39655;DHT22;25336;59.944;11.010;2023-02-26T16:56:34;6.90;48.90
39655;DHT22;25336;59.944;11.010;2023-02-26T16:59:16;6.80;49.10
39655;DHT22;25336;59.944;11.010;2023-02-26T17:04:26;6.60;49.50
39655;DHT22;25336;59.944;11.010;2023-02-26T17:06:53;6.50;49.60
39655;DHT22;25336;59.944;11.010;2023-02-26T17:09:39;6.40;49.80
39655;DHT22;25336;59.944;11.010;2023-02-26T17:12:22;6.30;50.00
39655;DHT22;25336;59.944;11.010;2023-02-26T17:14:58;6.30;50.00
39655;DHT22;25336;59.944;11.010;2023-02-26T17:17:25;6.20;50.00
39655;DHT22;25336;59.944;11.010;2023-02-26T17:19:50;6.10;50.10
39655;DHT22;25336;59.944;11.010;2023-02-26T17:22:22;6.00;50.30
39655;DHT22;25336;59.944;11.010;2023-02-26T17:24:48;5.90;50.60
39655;DHT22;25336;59.944;11.010;2023-02-26T17:27:28;5.90;50.60
39655;DHT22;25336;59.944;11.010;2023-02-26T17:29:56;5.80;50.80
39655;DHT22;25336;59.944;11.010;2023-02-26T17:32:26;5.70;50.80
39655;DHT22;25336;59.944;11.010;2023-02-26T17:34:53;5.70;51.00
39655;DHT22;25336;59.944;11.010;2023-02-26T17:37:24;5.60;51.00
39655;DHT22;25336;59.944;11.010;2023-02-26T17:39:52;5.50;51.20
39655;DHT22;25336;59.944;11.010;2023-02-26T17:42:19;5.50;51.20
39655;DHT22;25336;59.944;11.010;2023-02-26T17:44:46;5.40;51.40
39655;DHT22;25336;59.944;11.010;2023-02-26T17:47:20;5.30;51.40
39655;DHT22;25336;59.944;11.010;2023-02-26T17:49:46;5.30;51.60
39655;DHT22;25336;59.944;11.010;2023-02-26T17:52:14;5.20;51.60
39655;DHT22;25336;59.944;11.010;2023-02-26T17:54:41;5.10;51.80
39655;DHT22;25336;59.944;11.010;2023-02-26T17:57:10;5.10;52.00
39655;DHT22;25336;59.944;11.010;2023-02-26T17:59:38;5.00;52.20
39655;DHT22;25336;59.944;11.010;2023-02-26T18:02:20;4.90;52.20
39655;DHT22;25336;59.944;11.010;2023-02-26T18:04:46;4.80;52.50
39655;DHT22;25336;59.944;11.010;2023-02-26T18:07:14;4.70;52.40
39655;DHT22;25336;59.944;11.010;2023-02-26T18:09:45;4.70;52.60
39655;DHT22;25336;59.944;11.010;2023-02-26T18:12:19;4.60;52.80
39655;DHT22;25336;59.944;11.010;2023-02-26T18:14:46;4.60;53.10
39655;DHT22;25336;59.944;11.010;2023-02-26T18:17:13;4.50;53.10
39655;DHT22;25336;59.944;11.010;2023-02-26T18:19:40;4.40;53.20
39655;DHT22;25336;59.944;11.010;2023-02-26T18:22:12;4.40;53.20
39655;DHT22;25336;59.944;11.010;2023-02-26T18:24:38;4.40;53.40
39655;DHT22;25336;59.944;11.010;2023-02-26T18:27:05;4.30;53.50
39655;DHT22;25336;59.944;11.010;2023-02-26T18:29:31;4.30;53.40
39655;DHT22;25336;59.944;11.010;2023-02-26T18:31:57;4.20;53.60
39655;DHT22;25336;59.944;11.010;2023-02-26T18:34:24;4.10;53.80
39655;DHT22;25336;59.944;11.010;2023-02-26T18:36:50;4.10;53.90
39655;DHT22;25336;59.944;11.010;2023-02-26T18:39:16;4.10;53.90
39655;DHT22;25336;59.944;11.010;2023-02-26T18:41:44;4.00;53.90
39655;DHT22;25336;59.944;11.010;2023-02-26T18:44:11;3.90;54.10
39655;DHT22;25336;59.944;11.010;2023-02-26T18:46:37;3.80;54.20
39655;DHT22;25336;59.944;11.010;2023-02-26T18:49:05;3.70;54.30
39655;DHT22;25336;59.944;11.010;2023-02-26T18:51:31;3.70;54.70
39655;DHT22;25336;59.944;11.010;2023-02-26T18:53:57;3.60;54.80
39655;DHT22;25336;59.944;11.010;2023-02-26T18:56:23;3.50;55.10
39655;DHT22;25336;59.944;11.010;2023-02-26T18:58:48;3.50;55.40